sensor_id;sensor_type;location;lat;lon;timestamp;pressure;altitude;pressure_sealevel;temperature;humidity
54924;BME280;40825;52.270;20.984;2022-09-27T00:00:12;99322.80;;;12.28;82.36
54924;BME280;40825;52.270;20.984;2022-09-27T00:01:02;99325.22;;;12.28;82.45
54924;BME280;40825;52.270;20.984;2022-09-27T00:01:28;99324.52;;;12.28;82.51
54924;BME280;40825;52.270;20.984;2022-09-27T00:01:50;99322.12;;;12.28;82.22
54924;BME280;40825;52.270;20.984;2022-09-27T00:02:11;99322.75;;;12.28;82.57
54924;BME280;40825;52.270;20.984;2022-09-27T00:02:34;99321.52;;;12.28;82.57
54924;BME280;40825;52.270;20.984;2022-09-27T00:02:56;99324.69;;;12.28;82.39
54924;BME280;40825;52.270;20.984;2022-09-27T00:03:17;99320.52;;;12.28;82.06
54924;BME280;40825;52.270;20.984;2022-09-27T00:03:39;99319.11;;;12.28;81.83
54924;BME280;40825;52.270;20.984;2022-09-27T00:04:01;99314.42;;;12.29;81.72
54924;BME280;40825;52.270;20.984;2022-09-27T00:04:22;99320.02;;;12.30;81.74
54924;BME280;40825;52.270;20.984;2022-09-27T00:04:44;99320.51;;;12.30;81.74
54924;BME280;40825;52.270;20.984;2022-09-27T00:05:05;99316.55;;;12.30;81.91
54924;BME280;40825;52.270;20.984;2022-09-27T00:05:27;99315.98;;;12.30;81.79
54924;BME280;40825;52.270;20.984;2022-09-27T00:05:48;99315.77;;;12.30;81.55
54924;BME280;40825;52.270;20.984;2022-09-27T00:06:35;99312.73;;;12.31;81.18
54924;BME280;40825;52.270;20.984;2022-09-27T00:06:56;99316.71;;;12.32;81.76
54924;BME280;40825;52.270;20.984;2022-09-27T00:07:18;99312.02;;;12.33;82.42
54924;BME280;40825;52.270;20.984;2022-09-27T00:07:39;99316.46;;;12.33;84.37
54924;BME280;40825;52.270;20.984;2022-09-27T00:08:01;99314.66;;;12.34;83.95
54924;BME280;40825;52.270;20.984;2022-09-27T00:08:23;99311.83;;;12.34;83.19
54924;BME280;40825;52.270;20.984;2022-09-27T00:08:44;99317.13;;;12.34;82.67
54924;BME280;40825;52.270;20.984;2022-09-27T00:09:06;99313.48;;;12.34;82.24
54924;BME280;40825;52.270;20.984;2022-09-27T00:09:27;99315.17;;;12.33;82.04
54924;BME280;40825;52.270;20.984;2022-09-27T00:09:49;99314.05;;;12.33;81.85
54924;BME280;40825;52.270;20.984;2022-09-27T00:10:11;99314.98;;;12.33;81.69
54924;BME280;40825;52.270;20.984;2022-09-27T00:10:32;99315.09;;;12.33;82.31
54924;BME280;40825;52.270;20.984;2022-09-27T00:10:57;99312.95;;;12.34;82.55
54924;BME280;40825;52.270;20.984;2022-09-27T00:11:23;99312.98;;;12.33;82.76
54924;BME280;40825;52.270;20.984;2022-09-27T00:11:46;99315.08;;;12.34;83.48
54924;BME280;40825;52.270;20.984;2022-09-27T00:12:08;99312.95;;;12.33;83.36
54924;BME280;40825;52.270;20.984;2022-09-27T00:12:30;99311.77;;;12.33;82.68
54924;BME280;40825;52.270;20.984;2022-09-27T00:12:51;99316.15;;;12.34;82.74
54924;BME280;40825;52.270;20.984;2022-09-27T00:13:13;99312.41;;;12.34;82.42
54924;BME280;40825;52.270;20.984;2022-09-27T00:13:34;99311.23;;;12.33;82.23
54924;BME280;40825;52.270;20.984;2022-09-27T00:13:57;99311.59;;;12.33;82.19
54924;BME280;40825;52.270;20.984;2022-09-27T00:14:19;99310.10;;;12.33;82.02
54924;BME280;40825;52.270;20.984;2022-09-27T00:14:40;99311.66;;;12.34;81.92
54924;BME280;40825;52.270;20.984;2022-09-27T00:15:03;99311.02;;;12.33;82.28
54924;BME280;40825;52.270;20.984;2022-09-27T00:15:24;99311.17;;;12.34;82.25
54924;BME280;40825;52.270;20.984;2022-09-27T00:15:46;99310.17;;;12.34;83.48
54924;BME280;40825;52.270;20.984;2022-09-27T00:16:07;99313.77;;;12.34;84.44
54924;BME280;40825;52.270;20.984;2022-09-27T00:16:30;99312.36;;;12.34;83.60
54924;BME280;40825;52.270;20.984;2022-09-27T00:16:52;99310.88;;;12.34;82.70
54924;BME280;40825;52.270;20.984;2022-09-27T00:17:13;99311.58;;;12.34;83.03
54924;BME280;40825;52.270;20.984;2022-09-27T00:17:35;99311.09;;;12.34;82.57
54924;BME280;40825;52.270;20.984;2022-09-27T00:17:57;99316.23;;;12.34;84.43
54924;BME280;40825;52.270;20.984;2022-09-27T00:18:18;99313.55;;;12.34;84.92
54924;BME280;40825;52.270;20.984;2022-09-27T00:18:40;99312.60;;;12.35;83.87
54924;BME280;40825;52.270;20.984;2022-09-27T00:19:02;99310.71;;;12.34;83.12
54924;BME280;40825;52.270;20.984;2022-09-27T00:19:24;99309.44;;;12.34;83.42
54924;BME280;40825;52.270;20.984;2022-09-27T00:19:46;99311.04;;;12.34;83.11
54924;BME280;40825;52.270;20.984;2022-09-27T00:20:07;99311.09;;;12.34;83.12
54924;BME280;40825;52.270;20.984;2022-09-27T00:20:29;99310.17;;;12.34;82.73
54924;BME280;40825;52.270;20.984;2022-09-27T00:20:51;99312.32;;;12.34;82.40
54924;BME280;40825;52.270;20.984;2022-09-27T00:21:13;99313.19;;;12.34;82.06
54924;BME280;40825;52.270;20.984;2022-09-27T00:21:35;99315.23;;;12.35;81.96
54924;BME280;40825;52.270;20.984;2022-09-27T00:21:56;99312.45;;;12.35;81.85
54924;BME280;40825;52.270;20.984;2022-09-27T00:22:18;99310.79;;;12.35;82.00
54924;BME280;40825;52.270;20.984;2022-09-27T00:22:39;99311.48;;;12.35;83.20
54924;BME280;40825;52.270;20.984;2022-09-27T00:23:01;99310.33;;;12.36;82.87
54924;BME280;40825;52.270;20.984;2022-09-27T00:23:22;99309.66;;;12.35;82.26
54924;BME280;40825;52.270;20.984;2022-09-27T00:23:44;99309.08;;;12.35;82.16
54924;BME280;40825;52.270;20.984;2022-09-27T00:24:05;99307.92;;;12.36;81.98
54924;BME280;40825;52.270;20.984;2022-09-27T00:24:27;99309.43;;;12.37;81.78
54924;BME280;40825;52.270;20.984;2022-09-27T00:24:48;99309.75;;;12.37;81.93
54924;BME280;40825;52.270;20.984;2022-09-27T00:25:10;99308.56;;;12.38;82.15
54924;BME280;40825;52.270;20.984;2022-09-27T00:25:31;99306.66;;;12.37;82.67
54924;BME280;40825;52.270;20.984;2022-09-27T00:25:57;99304.81;;;12.38;82.64
54924;BME280;40825;52.270;20.984;2022-09-27T00:26:18;99306.25;;;12.38;83.96
54924;BME280;40825;52.270;20.984;2022-09-27T00:26:40;99305.14;;;12.38;83.67
54924;BME280;40825;52.270;20.984;2022-09-27T00:27:01;99305.77;;;12.37;82.94
54924;BME280;40825;52.270;20.984;2022-09-27T00:27:24;99305.06;;;12.37;82.45
54924;BME280;40825;52.270;20.984;2022-09-27T00:27:45;99304.73;;;12.37;82.90
54924;BME280;40825;52.270;20.984;2022-09-27T00:28:07;99306.52;;;12.37;82.86
54924;BME280;40825;52.270;20.984;2022-09-27T00:28:29;99307.56;;;12.37;82.86
54924;BME280;40825;52.270;20.984;2022-09-27T00:28:51;99303.77;;;12.37;83.52
54924;BME280;40825;52.270;20.984;2022-09-27T00:29:13;99305.89;;;12.36;82.71
54924;BME280;40825;52.270;20.984;2022-09-27T00:29:35;99303.38;;;12.36;82.30
54924;BME280;40825;52.270;20.984;2022-09-27T00:29:58;99301.73;;;12.37;82.42
54924;BME280;40825;52.270;20.984;2022-09-27T00:30:19;99301.73;;;12.37;82.41
54924;BME280;40825;52.270;20.984;2022-09-27T00:30:41;99303.75;;;12.38;82.64
54924;BME280;40825;52.270;20.984;2022-09-27T00:31:02;99305.52;;;12.38;82.96
54924;BME280;40825;52.270;20.984;2022-09-27T00:31:25;99303.79;;;12.38;82.31
54924;BME280;40825;52.270;20.984;2022-09-27T00:31:49;99302.11;;;12.37;82.15
54924;BME280;40825;52.270;20.984;2022-09-27T00:32:11;99300.95;;;12.37;82.11
54924;BME280;40825;52.270;20.984;2022-09-27T00:32:33;99304.89;;;12.39;82.05
54924;BME280;40825;52.270;20.984;2022-09-27T00:32:55;99301.30;;;12.39;82.93
54924;BME280;40825;52.270;20.984;2022-09-27T00:33:16;99301.42;;;12.39;82.72
54924;BME280;40825;52.270;20.984;2022-09-27T00:33:38;99302.23;;;12.40;82.44
54924;BME280;40825;52.270;20.984;2022-09-27T00:34:00;99304.42;;;12.40;82.49
54924;BME280;40825;52.270;20.984;2022-09-27T00:34:23;99303.63;;;12.40;82.29
54924;BME280;40825;52.270;20.984;2022-09-27T00:34:45;99307.05;;;12.40;82.26
54924;BME280;40825;52.270;20.984;2022-09-27T00:35:06;99304.00;;;12.40;82.30
54924;BME280;40825;52.270;20.984;2022-09-27T00:35:28;99301.28;;;12.41;83.43
54924;BME280;40825;52.270;20.984;2022-09-27T00:35:50;99304.98;;;12.41;84.24
54924;BME280;40825;52.270;20.984;2022-09-27T00:36:11;99303.10;;;12.40;84.74
54924;BME280;40825;52.270;20.984;2022-09-27T00:36:35;99300.05;;;12.40;84.35
54924;BME280;40825;52.270;20.984;2022-09-27T00:36:57;99298.54;;;12.40;84.07
54924;BME280;40825;52.270;20.984;2022-09-27T00:37:18;99300.51;;;12.39;83.84
54924;BME280;40825;52.270;20.984;2022-09-27T00:37:41;99298.25;;;12.39;83.91
54924;BME280;40825;52.270;20.984;2022-09-27T00:38:02;99300.27;;;12.38;83.67
54924;BME280;40825;52.270;20.984;2022-09-27T00:38:23;99296.25;;;12.38;83.88
54924;BME280;40825;52.270;20.984;2022-09-27T00:38:45;99293.73;;;12.38;83.96
54924;BME280;40825;52.270;20.984;2022-09-27T00:39:07;99297.90;;;12.38;83.02
54924;BME280;40825;52.270;20.984;2022-09-27T00:39:29;99296.70;;;12.37;83.04
54924;BME280;40825;52.270;20.984;2022-09-27T00:39:50;99294.94;;;12.37;82.51
54924;BME280;40825;52.270;20.984;2022-09-27T00:40:12;99296.75;;;12.37;82.73
54924;BME280;40825;52.270;20.984;2022-09-27T00:40:34;99298.52;;;12.37;82.52
54924;BME280;40825;52.270;20.984;2022-09-27T00:40:55;99294.98;;;12.37;83.69
54924;BME280;40825;52.270;20.984;2022-09-27T00:41:24;99293.37;;;12.37;83.00
54924;BME280;40825;52.270;20.984;2022-09-27T00:41:47;99295.61;;;12.36;82.76
54924;BME280;40825;52.270;20.984;2022-09-27T00:42:09;99294.92;;;12.36;83.00
54924;BME280;40825;52.270;20.984;2022-09-27T00:42:31;99291.91;;;12.36;82.55
54924;BME280;40825;52.270;20.984;2022-09-27T00:42:53;99295.89;;;12.37;83.05
54924;BME280;40825;52.270;20.984;2022-09-27T00:43:19;99293.48;;;12.36;82.90
54924;BME280;40825;52.270;20.984;2022-09-27T00:43:48;99293.05;;;12.36;83.07
54924;BME280;40825;52.270;20.984;2022-09-27T00:44:57;99293.89;;;12.36;83.35
54924;BME280;40825;52.270;20.984;2022-09-27T00:45:20;99289.33;;;12.35;83.37
54924;BME280;40825;52.270;20.984;2022-09-27T00:45:41;99288.42;;;12.35;82.54
54924;BME280;40825;52.270;20.984;2022-09-27T00:46:03;99287.67;;;12.35;83.14
54924;BME280;40825;52.270;20.984;2022-09-27T00:46:27;99285.92;;;12.36;83.35
54924;BME280;40825;52.270;20.984;2022-09-27T00:46:56;99284.14;;;12.35;83.70
54924;BME280;40825;52.270;20.984;2022-09-27T00:47:23;99281.14;;;12.35;83.08
54924;BME280;40825;52.270;20.984;2022-09-27T00:47:55;99281.88;;;12.35;83.42
54924;BME280;40825;52.270;20.984;2022-09-27T00:48:20;99284.52;;;12.35;83.14
54924;BME280;40825;52.270;20.984;2022-09-27T00:48:43;99280.65;;;12.35;83.10
54924;BME280;40825;52.270;20.984;2022-09-27T00:49:16;99283.70;;;12.35;83.47
54924;BME280;40825;52.270;20.984;2022-09-27T00:50:08;99280.53;;;12.35;82.92
54924;BME280;40825;52.270;20.984;2022-09-27T00:50:33;99280.80;;;12.35;82.78
54924;BME280;40825;52.270;20.984;2022-09-27T00:50:57;99283.88;;;12.35;82.40
54924;BME280;40825;52.270;20.984;2022-09-27T00:51:21;99281.60;;;12.34;82.74
54924;BME280;40825;52.270;20.984;2022-09-27T00:51:43;99279.21;;;12.35;83.02
54924;BME280;40825;52.270;20.984;2022-09-27T00:52:08;99280.73;;;12.36;83.39
54924;BME280;40825;52.270;20.984;2022-09-27T00:53:37;99281.14;;;12.35;83.47
54924;BME280;40825;52.270;20.984;2022-09-27T00:54:02;99281.52;;;12.35;83.32
54924;BME280;40825;52.270;20.984;2022-09-27T00:54:26;99277.48;;;12.34;83.07
54924;BME280;40825;52.270;20.984;2022-09-27T00:54:50;99278.92;;;12.34;83.12
54924;BME280;40825;52.270;20.984;2022-09-27T00:55:14;99280.31;;;12.34;82.99
54924;BME280;40825;52.270;20.984;2022-09-27T00:55:48;99279.67;;;12.34;82.81
54924;BME280;40825;52.270;20.984;2022-09-27T00:56:15;99277.36;;;12.34;83.05
54924;BME280;40825;52.270;20.984;2022-09-27T00:56:38;99278.48;;;12.34;82.75
54924;BME280;40825;52.270;20.984;2022-09-27T00:57:00;99274.56;;;12.34;82.92
54924;BME280;40825;52.270;20.984;2022-09-27T00:57:23;99277.52;;;12.34;83.14
54924;BME280;40825;52.270;20.984;2022-09-27T00:57:45;99279.19;;;12.34;82.80
54924;BME280;40825;52.270;20.984;2022-09-27T00:58:07;99274.41;;;12.34;82.70
54924;BME280;40825;52.270;20.984;2022-09-27T00:58:32;99276.88;;;12.34;84.16
54924;BME280;40825;52.270;20.984;2022-09-27T00:59:03;99278.48;;;12.34;84.06
54924;BME280;40825;52.270;20.984;2022-09-27T00:59:33;99277.87;;;12.33;84.62
54924;BME280;40825;52.270;20.984;2022-09-27T00:59:58;99276.52;;;12.33;84.68
54924;BME280;40825;52.270;20.984;2022-09-27T01:00:22;99273.24;;;12.32;84.16
54924;BME280;40825;52.270;20.984;2022-09-27T01:00:44;99274.95;;;12.31;83.93
54924;BME280;40825;52.270;20.984;2022-09-27T01:01:08;99277.09;;;12.31;83.71
54924;BME280;40825;52.270;20.984;2022-09-27T01:01:30;99274.34;;;12.31;83.57
54924;BME280;40825;52.270;20.984;2022-09-27T01:01:52;99273.81;;;12.31;83.26
54924;BME280;40825;52.270;20.984;2022-09-27T01:02:14;99274.49;;;12.31;83.13
54924;BME280;40825;52.270;20.984;2022-09-27T01:02:39;99272.31;;;12.31;83.12
54924;BME280;40825;52.270;20.984;2022-09-27T01:03:01;99275.73;;;12.31;83.25
54924;BME280;40825;52.270;20.984;2022-09-27T01:03:29;99270.77;;;12.31;83.64
54924;BME280;40825;52.270;20.984;2022-09-27T01:03:54;99271.12;;;12.31;84.17
54924;BME280;40825;52.270;20.984;2022-09-27T01:04:20;99272.09;;;12.30;83.77
54924;BME280;40825;52.270;20.984;2022-09-27T01:04:45;99275.26;;;12.31;83.41
54924;BME280;40825;52.270;20.984;2022-09-27T01:05:07;99273.02;;;12.30;83.74
54924;BME280;40825;52.270;20.984;2022-09-27T01:05:30;99271.48;;;12.30;83.95
54924;BME280;40825;52.270;20.984;2022-09-27T01:05:52;99268.47;;;12.29;84.50
54924;BME280;40825;52.270;20.984;2022-09-27T01:06:13;99268.67;;;12.29;83.97
54924;BME280;40825;52.270;20.984;2022-09-27T01:06:36;99268.34;;;12.29;83.79
54924;BME280;40825;52.270;20.984;2022-09-27T01:06:58;99272.14;;;12.29;83.80
54924;BME280;40825;52.270;20.984;2022-09-27T01:07:20;99268.97;;;12.28;83.98
54924;BME280;40825;52.270;20.984;2022-09-27T01:07:42;99266.99;;;12.28;83.58
54924;BME280;40825;52.270;20.984;2022-09-27T01:08:03;99268.98;;;12.28;83.33
54924;BME280;40825;52.270;20.984;2022-09-27T01:08:26;99266.89;;;12.28;83.10
54924;BME280;40825;52.270;20.984;2022-09-27T01:08:47;99265.55;;;12.28;83.04
54924;BME280;40825;52.270;20.984;2022-09-27T01:09:09;99265.10;;;12.29;83.28
54924;BME280;40825;52.270;20.984;2022-09-27T01:09:31;99267.45;;;12.29;83.25
54924;BME280;40825;52.270;20.984;2022-09-27T01:09:53;99269.66;;;12.30;83.01
54924;BME280;40825;52.270;20.984;2022-09-27T01:10:15;99263.86;;;12.29;83.12
54924;BME280;40825;52.270;20.984;2022-09-27T01:10:39;99267.02;;;12.30;83.25
54924;BME280;40825;52.270;20.984;2022-09-27T01:11:09;99267.40;;;12.29;83.16
54924;BME280;40825;52.270;20.984;2022-09-27T01:11:44;99265.14;;;12.29;83.08
54924;BME280;40825;52.270;20.984;2022-09-27T01:12:18;99269.00;;;12.29;83.05
54924;BME280;40825;52.270;20.984;2022-09-27T01:12:57;99265.95;;;12.29;82.74
54924;BME280;40825;52.270;20.984;2022-09-27T01:13:37;99266.05;;;12.29;83.16
54924;BME280;40825;52.270;20.984;2022-09-27T01:15:05;99264.65;;;12.29;83.18
54924;BME280;40825;52.270;20.984;2022-09-27T01:15:47;99264.65;;;12.29;83.14
54924;BME280;40825;52.270;20.984;2022-09-27T01:16:45;99262.73;;;12.29;82.96
54924;BME280;40825;52.270;20.984;2022-09-27T01:17:25;99262.56;;;12.31;82.86
54924;BME280;40825;52.270;20.984;2022-09-27T01:17:55;99263.23;;;12.31;82.71
54924;BME280;40825;52.270;20.984;2022-09-27T01:18:27;99263.66;;;12.32;82.77
54924;BME280;40825;52.270;20.984;2022-09-27T01:19:35;99265.69;;;12.33;82.71
54924;BME280;40825;52.270;20.984;2022-09-27T01:21:05;99266.64;;;12.35;82.66
54924;BME280;40825;52.270;20.984;2022-09-27T01:24:15;99264.17;;;12.35;83.07
54924;BME280;40825;52.270;20.984;2022-09-27T01:28:21;99263.38;;;12.33;82.91
54924;BME280;40825;52.270;20.984;2022-09-27T01:28:56;99260.56;;;12.34;83.05
54924;BME280;40825;52.270;20.984;2022-09-27T01:29:29;99261.70;;;12.35;83.04
54924;BME280;40825;52.270;20.984;2022-09-27T01:30:18;99262.02;;;12.35;83.53
54924;BME280;40825;52.270;20.984;2022-09-27T01:31:11;99264.86;;;12.35;83.39
54924;BME280;40825;52.270;20.984;2022-09-27T01:31:51;99263.19;;;12.35;83.68
54924;BME280;40825;52.270;20.984;2022-09-27T01:32:17;99263.48;;;12.34;84.37
54924;BME280;40825;52.270;20.984;2022-09-27T01:32:43;99260.16;;;12.33;83.90
54924;BME280;40825;52.270;20.984;2022-09-27T01:33:14;99262.08;;;12.33;84.42
54924;BME280;40825;52.270;20.984;2022-09-27T01:35:00;99265.15;;;12.31;83.17
54924;BME280;40825;52.270;20.984;2022-09-27T01:37:08;99264.12;;;12.33;82.89
54924;BME280;40825;52.270;20.984;2022-09-27T01:38:44;99259.61;;;12.35;83.04
54924;BME280;40825;52.270;20.984;2022-09-27T01:39:35;99262.73;;;12.35;82.94
54924;BME280;40825;52.270;20.984;2022-09-27T01:40:10;99264.67;;;12.36;83.53
54924;BME280;40825;52.270;20.984;2022-09-27T01:40:40;99260.32;;;12.36;83.46
54924;BME280;40825;52.270;20.984;2022-09-27T01:41:23;99263.77;;;12.36;83.75
54924;BME280;40825;52.270;20.984;2022-09-27T01:41:52;99263.42;;;12.35;83.35
54924;BME280;40825;52.270;20.984;2022-09-27T01:42:19;99258.92;;;12.35;83.87
54924;BME280;40825;52.270;20.984;2022-09-27T01:43:06;99259.98;;;12.35;83.95
54924;BME280;40825;52.270;20.984;2022-09-27T01:43:35;99257.89;;;12.34;83.80
54924;BME280;40825;52.270;20.984;2022-09-27T01:44:02;99258.84;;;12.34;84.02
54924;BME280;40825;52.270;20.984;2022-09-27T01:44:39;99255.83;;;12.34;84.29
54924;BME280;40825;52.270;20.984;2022-09-27T01:45:08;99255.39;;;12.33;83.20
54924;BME280;40825;52.270;20.984;2022-09-27T01:45:35;99255.66;;;12.33;83.39
54924;BME280;40825;52.270;20.984;2022-09-27T01:46:00;99255.54;;;12.32;83.45
54924;BME280;40825;52.270;20.984;2022-09-27T01:46:33;99255.00;;;12.32;84.17
54924;BME280;40825;52.270;20.984;2022-09-27T01:47:19;99254.46;;;12.32;83.61
54924;BME280;40825;52.270;20.984;2022-09-27T01:47:43;99250.39;;;12.32;83.28
54924;BME280;40825;52.270;20.984;2022-09-27T01:48:19;99253.29;;;12.32;83.66
54924;BME280;40825;52.270;20.984;2022-09-27T01:48:43;99253.94;;;12.32;83.21
54924;BME280;40825;52.270;20.984;2022-09-27T01:49:11;99250.56;;;12.32;83.15
54924;BME280;40825;52.270;20.984;2022-09-27T01:50:19;99252.02;;;12.33;83.38
54924;BME280;40825;52.270;20.984;2022-09-27T01:50:22;99250.37;;;12.33;83.23
54924;BME280;40825;52.270;20.984;2022-09-27T01:51:38;99251.59;;;12.33;83.03
54924;BME280;40825;52.270;20.984;2022-09-27T01:52:01;99250.27;;;12.34;83.06
54924;BME280;40825;52.270;20.984;2022-09-27T01:52:28;99250.77;;;12.34;83.13
54924;BME280;40825;52.270;20.984;2022-09-27T01:52:53;99250.14;;;12.35;82.97
54924;BME280;40825;52.270;20.984;2022-09-27T01:53:22;99249.34;;;12.35;83.93
54924;BME280;40825;52.270;20.984;2022-09-27T01:53:52;99253.05;;;12.36;83.86
54924;BME280;40825;52.270;20.984;2022-09-27T01:54:16;99253.81;;;12.36;83.12
54924;BME280;40825;52.270;20.984;2022-09-27T01:54:40;99251.40;;;12.36;83.22
54924;BME280;40825;52.270;20.984;2022-09-27T01:55:05;99252.26;;;12.36;84.24
54924;BME280;40825;52.270;20.984;2022-09-27T01:55:29;99252.65;;;12.37;83.69
54924;BME280;40825;52.270;20.984;2022-09-27T01:55:52;99255.59;;;12.37;84.10
54924;BME280;40825;52.270;20.984;2022-09-27T01:56:17;99251.63;;;12.37;83.45
54924;BME280;40825;52.270;20.984;2022-09-27T01:56:46;99256.40;;;12.37;84.11
54924;BME280;40825;52.270;20.984;2022-09-27T01:57:09;99254.79;;;12.37;84.57
54924;BME280;40825;52.270;20.984;2022-09-27T01:57:36;99255.64;;;12.36;84.90
54924;BME280;40825;52.270;20.984;2022-09-27T01:58:07;99252.63;;;12.36;84.63
54924;BME280;40825;52.270;20.984;2022-09-27T01:58:42;99247.39;;;12.36;83.97
54924;BME280;40825;52.270;20.984;2022-09-27T01:59:12;99249.71;;;12.35;83.74
54924;BME280;40825;52.270;20.984;2022-09-27T01:59:38;99248.95;;;12.34;85.32
54924;BME280;40825;52.270;20.984;2022-09-27T02:00:04;99245.75;;;12.34;83.75
54924;BME280;40825;52.270;20.984;2022-09-27T02:00:28;99249.81;;;12.35;83.51
54924;BME280;40825;52.270;20.984;2022-09-27T02:00:50;99248.05;;;12.35;83.65
54924;BME280;40825;52.270;20.984;2022-09-27T02:01:13;99246.45;;;12.35;83.85
54924;BME280;40825;52.270;20.984;2022-09-27T02:01:35;99247.83;;;12.35;83.48
54924;BME280;40825;52.270;20.984;2022-09-27T02:01:59;99248.90;;;12.35;83.46
54924;BME280;40825;52.270;20.984;2022-09-27T02:02:23;99247.58;;;12.35;83.47
54924;BME280;40825;52.270;20.984;2022-09-27T02:02:52;99247.86;;;12.36;83.33
54924;BME280;40825;52.270;20.984;2022-09-27T02:03:17;99246.90;;;12.36;83.48
54924;BME280;40825;52.270;20.984;2022-09-27T02:03:41;99246.10;;;12.36;83.19
54924;BME280;40825;52.270;20.984;2022-09-27T02:04:05;99246.86;;;12.36;83.36
54924;BME280;40825;52.270;20.984;2022-09-27T02:04:30;99248.21;;;12.37;83.34
54924;BME280;40825;52.270;20.984;2022-09-27T02:04:57;99246.38;;;12.37;83.40
54924;BME280;40825;52.270;20.984;2022-09-27T02:05:21;99247.54;;;12.38;83.61
54924;BME280;40825;52.270;20.984;2022-09-27T02:05:52;99244.11;;;12.38;83.64
54924;BME280;40825;52.270;20.984;2022-09-27T02:06:18;99246.80;;;12.38;85.04
54924;BME280;40825;52.270;20.984;2022-09-27T02:06:42;99247.13;;;12.38;84.21
54924;BME280;40825;52.270;20.984;2022-09-27T02:07:14;99246.80;;;12.38;83.87
54924;BME280;40825;52.270;20.984;2022-09-27T02:07:39;99247.86;;;12.38;83.55
54924;BME280;40825;52.270;20.984;2022-09-27T02:08:07;99244.77;;;12.38;84.04
54924;BME280;40825;52.270;20.984;2022-09-27T02:09:01;99244.50;;;12.39;84.18
54924;BME280;40825;52.270;20.984;2022-09-27T02:09:26;99247.40;;;12.39;84.31
54924;BME280;40825;52.270;20.984;2022-09-27T02:09:57;99248.15;;;12.39;83.69
54924;BME280;40825;52.270;20.984;2022-09-27T02:10:23;99247.03;;;12.39;83.46
54924;BME280;40825;52.270;20.984;2022-09-27T02:10:46;99248.59;;;12.40;83.44
54924;BME280;40825;52.270;20.984;2022-09-27T02:11:10;99248.61;;;12.41;83.85
54924;BME280;40825;52.270;20.984;2022-09-27T02:11:32;99245.23;;;12.41;84.07
54924;BME280;40825;52.270;20.984;2022-09-27T02:11:56;99247.91;;;12.41;85.10
54924;BME280;40825;52.270;20.984;2022-09-27T02:12:20;99243.09;;;12.40;84.20
54924;BME280;40825;52.270;20.984;2022-09-27T02:12:48;99244.75;;;12.40;84.28
54924;BME280;40825;52.270;20.984;2022-09-27T02:13:41;99246.13;;;12.39;83.99
54924;BME280;40825;52.270;20.984;2022-09-27T02:14:08;99244.73;;;12.39;84.20
54924;BME280;40825;52.270;20.984;2022-09-27T02:14:33;99241.85;;;12.37;85.19
54924;BME280;40825;52.270;20.984;2022-09-27T02:15:03;99241.69;;;12.37;84.34
54924;BME280;40825;52.270;20.984;2022-09-27T02:15:27;99241.05;;;12.37;83.89
54924;BME280;40825;52.270;20.984;2022-09-27T02:15:57;99240.71;;;12.37;83.81
54924;BME280;40825;52.270;20.984;2022-09-27T02:16:51;99238.45;;;12.36;83.77
54924;BME280;40825;52.270;20.984;2022-09-27T02:17:18;99239.45;;;12.36;83.78
54924;BME280;40825;52.270;20.984;2022-09-27T02:17:43;99240.98;;;12.36;83.51
54924;BME280;40825;52.270;20.984;2022-09-27T02:18:09;99236.95;;;12.37;83.46
54924;BME280;40825;52.270;20.984;2022-09-27T02:18:38;99239.60;;;12.37;83.63
54924;BME280;40825;52.270;20.984;2022-09-27T02:19:08;99237.41;;;12.37;83.64
54924;BME280;40825;52.270;20.984;2022-09-27T02:19:40;99235.89;;;12.37;83.61
54924;BME280;40825;52.270;20.984;2022-09-27T02:20:14;99236.26;;;12.38;83.44
54924;BME280;40825;52.270;20.984;2022-09-27T02:20:45;99237.97;;;12.39;84.12
54924;BME280;40825;52.270;20.984;2022-09-27T02:21:09;99235.19;;;12.38;83.66
54924;BME280;40825;52.270;20.984;2022-09-27T02:22:17;99236.05;;;12.38;83.49
54924;BME280;40825;52.270;20.984;2022-09-27T02:22:49;99235.52;;;12.39;84.41
54924;BME280;40825;52.270;20.984;2022-09-27T02:23:22;99235.27;;;12.38;84.08
54924;BME280;40825;52.270;20.984;2022-09-27T02:23:47;99234.24;;;12.37;84.45
54924;BME280;40825;52.270;20.984;2022-09-27T02:24:13;99232.83;;;12.36;84.20
54924;BME280;40825;52.270;20.984;2022-09-27T02:24:42;99232.10;;;12.35;83.82
54924;BME280;40825;52.270;20.984;2022-09-27T02:25:30;99232.81;;;12.34;83.86
54924;BME280;40825;52.270;20.984;2022-09-27T02:25:59;99230.46;;;12.34;83.70
54924;BME280;40825;52.270;20.984;2022-09-27T02:26:32;99230.09;;;12.34;83.78
54924;BME280;40825;52.270;20.984;2022-09-27T02:26:59;99228.41;;;12.33;83.71
54924;BME280;40825;52.270;20.984;2022-09-27T02:27:31;99231.48;;;12.33;83.79
54924;BME280;40825;52.270;20.984;2022-09-27T02:27:58;99232.28;;;12.34;83.74
54924;BME280;40825;52.270;20.984;2022-09-27T02:28:37;99236.15;;;12.34;83.61
54924;BME280;40825;52.270;20.984;2022-09-27T02:29:11;99237.30;;;12.34;83.95
54924;BME280;40825;52.270;20.984;2022-09-27T02:29:37;99233.54;;;12.33;84.00
54924;BME280;40825;52.270;20.984;2022-09-27T02:30:25;99236.64;;;12.32;85.03
54924;BME280;40825;52.270;20.984;2022-09-27T02:30:46;99235.94;;;12.32;84.99
54924;BME280;40825;52.270;20.984;2022-09-27T02:31:08;99234.98;;;12.31;84.44
54924;BME280;40825;52.270;20.984;2022-09-27T02:31:30;99232.02;;;12.31;83.99
54924;BME280;40825;52.270;20.984;2022-09-27T02:31:52;99234.16;;;12.31;83.94
54924;BME280;40825;52.270;20.984;2022-09-27T02:32:14;99236.63;;;12.31;84.23
54924;BME280;40825;52.270;20.984;2022-09-27T02:32:36;99236.66;;;12.31;84.08
54924;BME280;40825;52.270;20.984;2022-09-27T02:32:58;99237.38;;;12.31;86.05
54924;BME280;40825;52.270;20.984;2022-09-27T02:33:20;99235.59;;;12.31;84.74